Main page
METAR-TAF:

METAR-TAF

Airports :

Holzdorf Air Base

Holzdorf, Germany

latitude: 51-46N, longitude: 013-11E, elevation: 79 m

Current weather observation

The report was made 44 minutes ago, at 10:20 UTC
Wind 9 kt from the West/Southwest
Temperature 7°C
Humidity 33%
Pressure 1021 hPa
Visibility 10 km or more

METAR: ETSH 011020Z 25009KT 9999 07/M08 Q1021 BLU+BLU+

Time: 13:04 (11:04 UTC)

Forecast

The report was made 40 minutes ago, at 10:24 UTC
Forecast valid from 01 at 11 UTC to 01 at 20 UTC
Wind 10 kt from the West/Southwest with gusts up to 20 kt
Visibility 10 km or more
Few clouds at a height of 25000 ft
Becoming
from 01 at 16 UTC to 01 at 18 UTC
Wind 8 kt from the West/Southwest
Visibility 10 km or more
Broken clouds at a height of 6000 ft

TAF: ETSH 011024Z 0111/0120 25010G20KT 9999 NSW FEW250 BECMG 0116/0118 24008KT 9999 NSW BKN060

Weather observations and forecasts of more than 4000 airports (METAR and TAF reports).

The available stations are represented by yellow and red dots on the map.

Hover mouse over dot to see the name of the station.

Then click to see weather observations and forecasts.

To change the map : click on the green buttons with a black cross to zoom in, on the green button with a dash to zoom out, or on the green arrows for adjacent maps.


METAR-TAF: